createdAt,value
2023-07-03T00:00:19.615Z,43.91
2023-07-03T00:02:52.560Z,43.63
2023-07-03T00:05:20.796Z,43.99
2023-07-03T00:07:49.064Z,43.81
2023-07-03T00:10:17.809Z,44.00
2023-07-03T00:12:46.928Z,43.90
2023-07-03T00:15:15.320Z,44.06
2023-07-03T00:17:45.601Z,44.11
2023-07-03T00:20:15.713Z,44.11
2023-07-03T00:22:44.110Z,44.29
2023-07-03T00:25:12.031Z,44.03
2023-07-03T00:27:39.848Z,44.12
2023-07-03T00:30:10.334Z,44.31
2023-07-03T00:32:38.159Z,44.28
2023-07-03T00:35:07.848Z,44.29
2023-07-03T00:37:36.039Z,44.35
2023-07-03T00:40:04.816Z,44.45
2023-07-03T00:42:32.590Z,44.56
2023-07-03T00:45:00.339Z,44.52
2023-07-03T00:47:29.754Z,44.65
2023-07-03T00:49:57.614Z,44.58
2023-07-03T00:52:25.469Z,44.69
2023-07-03T00:54:54.522Z,44.67
2023-07-03T00:57:24.549Z,44.72
2023-07-03T00:59:52.456Z,44.74
2023-07-03T01:02:27.172Z,44.83
2023-07-03T01:05:01.857Z,45.10
2023-07-03T01:07:33.146Z,45.03
2023-07-03T01:10:07.038Z,45.16
2023-07-03T01:12:39.363Z,45.19
2023-07-03T01:15:11.183Z,45.05
2023-07-03T01:17:42.046Z,45.14
2023-07-03T01:20:18.106Z,45.13
2023-07-03T01:22:52.921Z,45.38
2023-07-03T01:25:25.448Z,45.39
2023-07-03T01:27:54.388Z,45.37
2023-07-03T01:30:23.566Z,45.47
2023-07-03T01:32:54.742Z,45.63
2023-07-03T01:35:24.957Z,45.50
2023-07-03T01:37:55.280Z,45.45
2023-07-03T01:40:27.614Z,45.73
2023-07-03T01:42:57.308Z,45.76
2023-07-03T01:45:25.097Z,45.81
2023-07-03T01:47:52.850Z,45.93
2023-07-03T01:50:24.765Z,45.91
2023-07-03T01:52:56.572Z,46.06
2023-07-03T01:55:33.096Z,46.16
2023-07-03T01:58:04.670Z,46.12
2023-07-03T02:00:37.033Z,46.19
2023-07-03T02:03:12.376Z,46.34
2023-07-03T02:05:41.387Z,46.30
2023-07-03T02:08:11.198Z,46.31
2023-07-03T02:10:42.130Z,46.51
2023-07-03T02:13:09.860Z,46.97
2023-07-03T02:15:37.674Z,46.58
2023-07-03T02:18:05.786Z,47.11
2023-07-03T02:20:33.687Z,47.10
2023-07-03T02:23:01.415Z,46.92
2023-07-03T02:25:29.400Z,47.07
2023-07-03T02:27:58.525Z,47.11
2023-07-03T02:30:26.543Z,47.12
2023-07-03T02:32:54.442Z,47.26
2023-07-03T02:35:22.245Z,47.42
2023-07-03T02:37:49.932Z,47.33
2023-07-03T02:40:17.931Z,47.31
2023-07-03T02:42:45.670Z,47.36
2023-07-03T02:45:14.949Z,47.33
2023-07-03T02:47:42.657Z,47.46
2023-07-03T02:50:11.209Z,47.44
2023-07-03T02:52:39.109Z,47.87
2023-07-03T02:55:07.686Z,47.53
2023-07-03T02:57:35.416Z,47.84
2023-07-03T03:00:03.456Z,47.73
2023-07-03T03:02:32.609Z,48.35
2023-07-03T03:05:00.393Z,48.09
2023-07-03T03:07:29.286Z,48.24
2023-07-03T03:09:57.019Z,48.35
2023-07-03T03:12:24.804Z,48.31
2023-07-03T03:14:52.854Z,48.31
2023-07-03T03:17:20.578Z,48.50
2023-07-03T03:19:49.929Z,48.60
2023-07-03T03:22:17.682Z,48.69
2023-07-03T03:24:45.675Z,48.69
2023-07-03T03:27:14.577Z,48.50
2023-07-03T03:29:42.911Z,48.76
2023-07-03T03:32:10.952Z,48.89
2023-07-03T03:34:38.694Z,48.84
2023-07-03T03:37:08.061Z,48.67
2023-07-03T03:39:35.804Z,49.20
2023-07-03T03:42:03.532Z,49.24
2023-07-03T03:44:31.279Z,49.06
2023-07-03T03:46:59.036Z,49.29
2023-07-03T03:49:26.766Z,49.31
2023-07-03T03:51:55.023Z,49.26
2023-07-03T03:54:24.131Z,49.51
2023-07-03T03:56:51.899Z,49.59
2023-07-03T03:59:20.968Z,49.71
2023-07-03T04:01:49.568Z,49.59
2023-07-03T04:04:17.789Z,49.77
2023-07-03T04:06:45.612Z,49.87
2023-07-03T04:09:14.004Z,49.90
2023-07-03T04:11:43.170Z,49.81
2023-07-03T04:14:11.122Z,49.98
2023-07-03T04:16:38.998Z,50.33
2023-07-03T04:19:06.844Z,50.64
2023-07-03T04:21:34.597Z,50.54
2023-07-03T04:24:02.361Z,50.25
2023-07-03T04:26:30.112Z,50.67
2023-07-03T04:28:59.372Z,50.60
2023-07-03T04:31:27.261Z,50.61
2023-07-03T04:33:55.062Z,50.37
2023-07-03T04:36:23.050Z,50.52
2023-07-03T04:38:50.818Z,50.51
2023-07-03T04:41:19.514Z,50.61
2023-07-03T04:43:49.302Z,50.50
2023-07-03T04:46:19.848Z,50.87
2023-07-03T04:48:47.996Z,50.85
2023-07-03T04:51:15.936Z,50.82
2023-07-03T04:53:43.721Z,51.09
2023-07-03T04:56:12.514Z,51.31
2023-07-03T04:58:41.417Z,51.22
2023-07-03T05:01:13.270Z,51.33
2023-07-03T05:03:42.768Z,50.83
2023-07-03T05:06:10.757Z,51.33
2023-07-03T05:08:38.540Z,51.30
2023-07-03T05:11:06.666Z,51.18
2023-07-03T05:13:34.396Z,51.38
2023-07-03T05:16:02.277Z,50.99
2023-07-03T05:18:30.088Z,51.47
2023-07-03T05:20:59.224Z,51.80
2023-07-03T05:23:26.956Z,51.66
2023-07-03T05:25:54.708Z,51.85
2023-07-03T05:28:22.885Z,51.83
2023-07-03T05:30:55.428Z,52.44
2023-07-03T05:33:23.237Z,52.43
2023-07-03T05:35:54.558Z,52.61
2023-07-03T05:38:24.029Z,52.30
2023-07-03T05:40:51.910Z,52.42
2023-07-03T05:43:19.878Z,52.20
2023-07-03T05:45:49.173Z,52.05
2023-07-03T05:48:17.405Z,52.04
2023-07-03T05:50:46.044Z,52.17
2023-07-03T05:53:13.914Z,51.50
2023-07-03T05:55:44.674Z,51.86
2023-07-03T05:58:12.684Z,51.78
2023-07-03T06:00:40.695Z,51.85
2023-07-03T06:03:12.622Z,51.95
2023-07-03T06:05:40.459Z,51.72
2023-07-03T06:08:08.243Z,51.45
2023-07-03T06:10:36.014Z,51.89
2023-07-03T06:13:05.435Z,51.86
2023-07-03T06:15:35.592Z,51.87
2023-07-03T06:18:04.574Z,51.79
2023-07-03T06:20:32.614Z,51.69
2023-07-03T06:23:00.347Z,51.88
2023-07-03T06:25:28.301Z,51.87
2023-07-03T06:27:56.109Z,52.12
2023-07-03T06:30:25.339Z,52.14
2023-07-03T06:32:53.171Z,52.17
2023-07-03T06:35:21.167Z,51.92
2023-07-03T06:37:48.972Z,52.09
2023-07-03T06:40:17.259Z,51.92
2023-07-03T06:42:45.288Z,51.87
2023-07-03T06:45:14.042Z,51.71
2023-07-03T06:47:43.162Z,52.16
2023-07-03T06:50:11.549Z,51.83
2023-07-03T06:52:39.595Z,51.67
2023-07-03T06:55:07.787Z,51.63
2023-07-03T06:57:35.735Z,51.74
2023-07-03T07:00:06.733Z,52.07
2023-07-03T07:02:34.630Z,51.79
2023-07-03T07:05:04.319Z,52.77
2023-07-03T07:07:32.327Z,51.61
2023-07-03T07:10:00.136Z,51.67
2023-07-03T07:12:27.941Z,51.91
2023-07-03T07:14:55.734Z,51.70
2023-07-03T07:17:26.075Z,51.86
2023-07-03T07:20:01.191Z,51.79
2023-07-03T07:22:30.322Z,51.68
2023-07-03T07:24:58.065Z,51.94
2023-07-03T07:27:25.967Z,51.70
2023-07-03T07:29:53.693Z,52.01
2023-07-03T07:32:22.625Z,51.61
2023-07-03T07:34:50.427Z,51.69
2023-07-03T07:37:18.296Z,51.55
2023-07-03T07:39:47.518Z,51.51
2023-07-03T07:42:15.299Z,51.51
2023-07-03T07:44:43.028Z,51.62
2023-07-03T07:47:11.484Z,51.40
2023-07-03T07:49:40.971Z,51.34
2023-07-03T07:52:09.537Z,51.24
2023-07-03T07:54:37.311Z,50.83
2023-07-03T07:57:07.046Z,50.98
2023-07-03T07:59:35.750Z,50.85
2023-07-03T08:02:04.185Z,50.85
2023-07-03T08:04:32.125Z,50.87
2023-07-03T08:07:01.615Z,51.00
2023-07-03T08:09:29.395Z,50.84
2023-07-03T08:11:57.398Z,50.69
2023-07-03T08:14:26.520Z,50.58
2023-07-03T08:16:54.369Z,50.55
2023-07-03T08:19:22.312Z,50.27
2023-07-03T08:21:50.083Z,50.31
2023-07-03T08:24:18.499Z,50.52
2023-07-03T08:26:50.296Z,50.40
2023-07-03T08:29:18.074Z,50.48
2023-07-03T08:31:47.354Z,50.18
2023-07-03T08:34:15.749Z,50.32
2023-07-03T08:39:15.459Z,49.78
2023-07-03T08:41:52.577Z,49.84
2023-07-03T08:44:20.534Z,49.37
2023-07-03T08:47:06.158Z,49.66
2023-07-03T08:49:42.051Z,49.69
2023-07-03T08:52:10.021Z,49.82
2023-07-03T08:54:39.672Z,49.67
2023-07-03T08:57:11.848Z,49.47
2023-07-03T08:59:39.793Z,49.53
2023-07-03T09:02:16.729Z,49.67
2023-07-03T09:05:02.252Z,49.41
2023-07-03T09:07:36.476Z,49.98
2023-07-03T09:10:14.074Z,49.61
2023-07-03T09:12:50.461Z,49.30
2023-07-03T09:15:24.112Z,49.44
2023-07-03T09:17:55.273Z,49.54
2023-07-03T09:20:26.091Z,49.81
2023-07-03T09:22:59.601Z,50.42
2023-07-03T09:25:34.052Z,50.27
2023-07-03T09:28:05.143Z,49.53
2023-07-03T09:30:33.987Z,49.81
2023-07-03T09:33:03.369Z,50.04
2023-07-03T09:35:36.330Z,50.26
2023-07-03T09:38:06.647Z,49.68
2023-07-03T09:40:38.533Z,49.61
2023-07-03T09:43:14.072Z,49.02
2023-07-03T09:45:44.340Z,49.60
2023-07-03T09:48:19.833Z,49.18
2023-07-03T09:51:01.908Z,48.95
2023-07-03T09:53:34.747Z,48.73
2023-07-03T09:56:03.645Z,48.46
2023-07-03T09:58:32.138Z,48.17
2023-07-03T10:01:02.181Z,48.22
2023-07-03T10:03:34.005Z,49.54
2023-07-03T10:08:48.677Z,49.87
2023-07-03T10:11:23.766Z,49.08
2023-07-03T10:13:53.335Z,48.06
2023-07-03T10:16:24.638Z,48.36
2023-07-03T10:18:56.488Z,47.96
2023-07-03T10:21:25.283Z,47.88
2023-07-03T10:23:53.964Z,48.69
2023-07-03T10:26:25.872Z,47.51
2023-07-03T10:28:59.619Z,48.11
2023-07-03T10:31:34.980Z,48.05
2023-07-03T10:34:08.414Z,47.88
2023-07-03T10:36:37.857Z,47.17
2023-07-03T10:39:11.289Z,47.33
2023-07-03T10:41:45.525Z,47.67
2023-07-03T10:44:18.248Z,47.43
2023-07-03T10:46:51.907Z,47.25
2023-07-03T10:49:26.657Z,47.26
2023-07-03T10:52:04.588Z,46.69
2023-07-03T10:54:38.338Z,46.63
2023-07-03T10:57:08.516Z,46.16
2023-07-03T10:59:41.579Z,46.72
2023-07-03T11:02:22.452Z,46.20
2023-07-03T11:05:00.128Z,45.61
2023-07-03T11:07:35.004Z,45.46
2023-07-03T11:10:10.962Z,44.92
2023-07-03T11:12:46.250Z,45.11
2023-07-03T11:15:24.830Z,45.03
2023-07-03T11:23:18.180Z,44.86
2023-07-03T11:28:33.397Z,45.14
2023-07-03T11:31:03.687Z,45.21
2023-07-03T11:36:06.928Z,44.86
2023-07-03T11:43:44.501Z,44.12
2023-07-03T11:46:18.985Z,44.08
2023-07-03T11:48:50.616Z,44.21
2023-07-03T11:51:34.194Z,44.82
2023-07-03T11:54:14.528Z,44.45
2023-07-03T11:56:52.107Z,43.95
2023-07-03T11:59:30.329Z,43.82
2023-07-03T12:02:46.661Z,43.88
2023-07-03T12:05:53.142Z,42.86
2023-07-03T12:08:45.027Z,43.44
2023-07-03T12:11:14.159Z,43.52
2023-07-03T12:13:52.242Z,43.28
2023-07-03T12:16:22.418Z,43.56
2023-07-03T12:19:02.226Z,43.85
2023-07-03T12:21:38.981Z,42.81
2023-07-03T12:24:21.408Z,43.24
2023-07-03T12:26:58.931Z,41.52
2023-07-03T12:29:26.672Z,42.70
2023-07-03T12:31:59.638Z,42.80
2023-07-03T12:34:28.082Z,42.45
2023-07-03T12:37:02.442Z,42.07
2023-07-03T12:39:32.978Z,42.48
2023-07-03T12:42:11.961Z,42.39
2023-07-03T12:44:40.061Z,42.36
2023-07-03T12:47:10.292Z,41.97
2023-07-03T12:50:00.807Z,42.23
2023-07-03T12:52:31.126Z,41.84
2023-07-03T12:57:35.462Z,41.90
2023-07-03T13:00:04.339Z,41.96
2023-07-03T13:02:33.317Z,42.03
2023-07-03T13:05:04.010Z,41.93
2023-07-03T13:07:32.656Z,42.00
2023-07-03T13:10:11.750Z,41.90
2023-07-03T13:12:41.015Z,41.92
2023-07-03T13:15:11.972Z,42.34
2023-07-03T13:17:41.677Z,42.50
2023-07-03T13:20:22.294Z,42.37
2023-07-03T13:22:52.224Z,42.08
2023-07-03T13:25:30.921Z,42.52
2023-07-03T13:27:59.326Z,42.55
2023-07-03T13:30:32.966Z,42.02
2023-07-03T13:33:03.347Z,42.14
2023-07-03T13:35:35.288Z,42.12
2023-07-03T13:38:14.964Z,42.32
2023-07-03T13:40:44.064Z,42.57
2023-07-03T13:43:11.786Z,43.34
2023-07-03T13:45:39.926Z,42.87
2023-07-03T13:48:08.276Z,42.05
2023-07-03T13:50:36.067Z,42.06
2023-07-03T13:53:03.912Z,42.65
2023-07-03T13:55:32.000Z,42.40
2023-07-03T13:58:01.085Z,42.48
2023-07-03T14:00:29.041Z,42.92
2023-07-03T14:02:57.278Z,42.64
2023-07-03T14:05:25.165Z,42.58
2023-07-03T14:07:52.944Z,42.71
2023-07-03T14:10:20.751Z,42.34
2023-07-03T14:12:48.507Z,40.90
2023-07-03T14:15:21.580Z,41.66
2023-07-03T14:17:49.398Z,41.96
2023-07-03T14:20:17.297Z,42.14
2023-07-03T14:22:45.428Z,42.10
2023-07-03T14:25:14.922Z,42.03
2023-07-03T14:27:42.876Z,42.18
2023-07-03T14:30:12.472Z,42.59
2023-07-03T14:32:54.846Z,42.63
2023-07-03T14:35:23.827Z,42.54
2023-07-03T14:37:51.600Z,42.64
2023-07-03T14:40:19.430Z,42.56
2023-07-03T14:42:48.100Z,42.72
2023-07-03T14:45:16.050Z,42.75
2023-07-03T14:47:45.317Z,41.50
2023-07-03T14:50:13.709Z,42.16
2023-07-03T14:52:43.676Z,42.96
2023-07-03T14:55:11.916Z,42.58
2023-07-03T14:57:39.924Z,42.52
2023-07-03T15:00:09.861Z,42.42
2023-07-03T15:02:38.692Z,42.37
2023-07-03T15:05:09.094Z,42.46
2023-07-03T15:07:36.917Z,42.02
2023-07-03T15:10:05.033Z,41.78
2023-07-03T15:12:32.950Z,41.92
2023-07-03T15:15:00.795Z,41.81
2023-07-03T15:17:28.991Z,42.33
2023-07-03T15:19:56.991Z,42.43
2023-07-03T15:22:26.261Z,42.86
2023-07-03T15:24:54.026Z,42.96
2023-07-03T15:27:21.805Z,42.83
2023-07-03T15:29:49.554Z,42.34
2023-07-03T15:32:17.350Z,42.84
2023-07-03T15:34:45.105Z,42.65
2023-07-03T15:37:12.827Z,42.60
2023-07-03T15:39:42.152Z,42.32
2023-07-03T15:42:10.422Z,42.43
2023-07-03T15:44:38.236Z,42.86
2023-07-03T15:47:08.661Z,43.17
2023-07-03T15:49:37.618Z,42.87
2023-07-03T15:52:06.023Z,42.10
2023-07-03T15:54:38.189Z,41.63
2023-07-03T15:57:08.656Z,41.45
2023-07-03T15:59:37.107Z,41.03
2023-07-03T16:02:05.011Z,41.14
2023-07-03T16:04:32.796Z,41.74
2023-07-03T16:07:00.610Z,41.84
2023-07-03T16:09:28.365Z,41.77
2023-07-03T16:11:56.110Z,41.35
2023-07-03T16:14:25.271Z,41.08
2023-07-03T16:16:53.062Z,40.92
2023-07-03T16:19:20.865Z,40.97
2023-07-03T16:21:48.634Z,40.38
2023-07-03T16:24:16.414Z,40.25
2023-07-03T16:26:44.144Z,40.01
2023-07-03T16:29:12.001Z,41.10
2023-07-03T16:31:42.743Z,41.73
2023-07-03T16:34:12.438Z,41.58
2023-07-03T16:36:40.191Z,41.03
2023-07-03T16:39:07.948Z,41.19
2023-07-03T16:41:38.456Z,41.31
2023-07-03T16:44:06.245Z,41.17
2023-07-03T16:46:36.421Z,40.83
2023-07-03T16:49:07.892Z,40.65
2023-07-03T16:51:35.709Z,40.37
2023-07-03T16:54:03.503Z,41.17
2023-07-03T16:56:33.448Z,40.96
2023-07-03T16:59:01.303Z,41.18
2023-07-03T17:01:31.188Z,41.11
2023-07-03T17:03:59.126Z,40.78
2023-07-03T17:06:31.827Z,41.02
2023-07-03T17:09:00.488Z,40.60
2023-07-03T17:11:28.427Z,40.66
2023-07-03T17:13:56.507Z,40.50
2023-07-03T17:16:24.403Z,40.79
2023-07-03T17:18:52.167Z,40.81
2023-07-03T17:21:19.925Z,40.55
2023-07-03T17:23:51.753Z,40.32
2023-07-03T17:26:19.553Z,40.74
2023-07-03T17:28:48.541Z,40.53
2023-07-03T17:31:16.361Z,40.87
2023-07-03T17:33:44.222Z,40.36
2023-07-03T17:36:11.976Z,40.62
2023-07-03T17:38:39.693Z,40.52
2023-07-03T17:41:08.800Z,40.40
2023-07-03T17:43:37.840Z,40.49
2023-07-03T17:46:05.832Z,40.40
2023-07-03T17:48:33.763Z,40.79
2023-07-03T17:51:01.666Z,40.94
2023-07-03T17:53:29.425Z,40.90
2023-07-03T17:55:57.265Z,40.92
2023-07-03T17:58:26.493Z,40.85
2023-07-03T18:00:59.945Z,40.74
2023-07-03T18:03:27.838Z,40.88
2023-07-03T18:05:56.487Z,40.92
2023-07-03T18:08:24.497Z,40.62
2023-07-03T18:10:52.741Z,40.81
2023-07-03T18:13:20.652Z,40.94
2023-07-03T18:15:50.452Z,40.79
2023-07-03T18:18:20.636Z,40.70
2023-07-03T18:20:48.663Z,40.73
2023-07-03T18:23:16.468Z,40.52
2023-07-03T18:25:44.245Z,40.77
2023-07-03T18:28:12.288Z,40.39
2023-07-03T18:30:40.094Z,40.31
2023-07-03T18:33:09.265Z,40.07
2023-07-03T18:35:37.809Z,40.05
2023-07-03T18:38:06.275Z,40.44
2023-07-03T18:40:34.318Z,40.04
2023-07-03T18:43:02.352Z,39.87
2023-07-03T18:45:30.068Z,39.74
2023-07-03T18:47:57.850Z,39.92
2023-07-03T18:50:27.035Z,39.54
2023-07-03T18:52:54.831Z,39.62
2023-07-03T18:55:23.223Z,39.54
2023-07-03T18:57:51.356Z,39.73
2023-07-03T19:00:19.355Z,39.62
2023-07-03T19:02:47.184Z,40.12
2023-07-03T19:05:15.317Z,40.40
2023-07-03T19:07:44.830Z,40.31
2023-07-03T19:10:18.290Z,40.46
2023-07-03T19:12:46.758Z,40.14
2023-07-03T19:15:14.647Z,40.32
2023-07-03T19:17:42.604Z,40.54
2023-07-03T19:20:14.058Z,40.71
2023-07-03T19:22:42.010Z,40.36
2023-07-03T19:25:11.474Z,40.35
2023-07-03T19:27:39.249Z,40.51
2023-07-03T19:30:09.827Z,40.82
2023-07-03T19:32:37.639Z,40.77
2023-07-03T19:35:07.069Z,40.72
2023-07-03T19:37:34.860Z,41.37
2023-07-03T19:40:05.818Z,41.16
2023-07-03T19:42:35.821Z,41.29
2023-07-03T19:45:04.112Z,40.59
2023-07-03T19:47:31.936Z,40.89
2023-07-03T19:49:59.810Z,40.88
2023-07-03T19:52:28.066Z,41.17
2023-07-03T19:54:56.645Z,41.53
2023-07-03T19:57:24.421Z,41.09
2023-07-03T19:59:55.386Z,41.11
2023-07-03T20:02:23.150Z,41.06
2023-07-03T20:04:51.055Z,41.35
2023-07-03T20:07:18.851Z,41.13
2023-07-03T20:09:47.359Z,41.18
2023-07-03T20:12:15.153Z,41.16
2023-07-03T20:14:44.397Z,41.40
2023-07-03T20:17:13.629Z,41.31
2023-07-03T20:19:41.444Z,41.32
2023-07-03T20:22:09.232Z,41.46
2023-07-03T20:24:37.026Z,41.46
2023-07-03T20:27:05.371Z,41.50
2023-07-03T20:29:33.203Z,41.59
2023-07-03T20:32:01.453Z,41.67
2023-07-03T20:34:30.630Z,41.68
2023-07-03T20:36:58.452Z,41.62
2023-07-03T20:39:26.188Z,41.77
2023-07-03T20:41:53.944Z,41.74
2023-07-03T20:44:21.834Z,41.73
2023-07-03T20:46:51.312Z,41.90
2023-07-03T20:49:19.712Z,41.97
2023-07-03T20:51:53.804Z,42.17
2023-07-03T20:54:34.262Z,42.04
2023-07-03T20:57:03.066Z,42.14
2023-07-03T20:59:30.995Z,42.15
2023-07-03T21:01:58.805Z,42.42
2023-07-03T21:04:26.988Z,42.33
2023-07-03T21:06:56.369Z,42.21
2023-07-03T21:09:24.160Z,42.48
2023-07-03T21:11:51.941Z,42.53
2023-07-03T21:14:19.985Z,42.48
2023-07-03T21:16:47.895Z,42.58
2023-07-03T21:19:15.859Z,42.67
2023-07-03T21:21:43.613Z,42.90
2023-07-03T21:24:13.869Z,43.06
2023-07-03T21:26:41.660Z,42.97
2023-07-03T21:29:09.464Z,43.04
2023-07-03T21:31:38.211Z,43.03
2023-07-03T21:34:06.692Z,43.17
2023-07-03T21:36:34.706Z,43.20
2023-07-03T21:39:05.608Z,43.26
2023-07-03T21:41:37.445Z,43.38
2023-07-03T21:44:13.011Z,43.32
2023-07-03T21:46:41.712Z,43.32
2023-07-03T21:49:12.705Z,43.43
2023-07-03T21:51:40.501Z,43.60
2023-07-03T21:54:08.294Z,43.64
2023-07-03T21:56:39.472Z,43.69
2023-07-03T21:59:07.581Z,43.63
2023-07-03T22:01:37.721Z,43.59
2023-07-03T22:04:07.102Z,43.79
2023-07-03T22:06:34.947Z,44.03
2023-07-03T22:09:02.993Z,44.05
2023-07-03T22:11:31.656Z,44.14
2023-07-03T22:14:00.978Z,44.23
2023-07-03T22:16:28.867Z,44.53
2023-07-03T22:18:56.642Z,44.53
2023-07-03T22:21:25.271Z,44.60
2023-07-03T22:23:53.570Z,44.92
2023-07-03T22:26:21.871Z,44.89
2023-07-03T22:28:49.757Z,44.91
2023-07-03T22:31:19.047Z,45.11
2023-07-03T22:33:46.863Z,44.92
2023-07-03T22:36:14.995Z,44.87
2023-07-03T22:38:42.873Z,45.16
2023-07-03T22:41:11.591Z,44.92
2023-07-03T22:43:40.720Z,44.97
2023-07-03T22:46:10.555Z,45.11
2023-07-03T22:48:42.296Z,45.27
2023-07-03T22:51:11.255Z,45.06
2023-07-03T22:53:39.275Z,45.21
2023-07-03T22:56:07.999Z,45.28
2023-07-03T22:58:36.054Z,45.31
2023-07-03T23:01:08.177Z,45.56
2023-07-03T23:03:35.964Z,45.40
2023-07-03T23:06:07.265Z,45.66
2023-07-03T23:08:35.777Z,45.80
2023-07-03T23:11:03.668Z,45.60
2023-07-03T23:13:32.722Z,45.77
2023-07-03T23:16:05.341Z,45.97
2023-07-03T23:18:33.802Z,45.92
2023-07-03T23:21:03.962Z,45.88
2023-07-03T23:23:35.125Z,46.00
2023-07-03T23:26:05.010Z,46.22
2023-07-03T23:28:36.078Z,46.11
2023-07-03T23:31:06.489Z,46.18
2023-07-03T23:33:35.931Z,46.27
2023-07-03T23:36:07.051Z,45.96
2023-07-03T23:38:37.287Z,46.24
2023-07-03T23:41:05.815Z,46.25
2023-07-03T23:43:33.969Z,46.28
2023-07-03T23:46:04.290Z,46.43
2023-07-03T23:48:32.914Z,46.69
2023-07-03T23:51:03.623Z,46.59
2023-07-03T23:53:33.507Z,46.63
2023-07-03T23:56:05.632Z,46.87
2023-07-03T23:58:35.119Z,46.76
